This is the latest recevied weather packets stored in our database for station/object LRSB. If no packets are shown the sender has not sent any weather packets the latest 10 day(s).
| Time | Temp. | Humidity | Pressure | Rain* | Wind** | Luminosity | Snow |
|---|---|---|---|---|---|---|---|
| 1777924091 | 12.78° C | 59% | 1016 hPa | - | - | - | - |
| 1777923192 | 12.78° C | 59% | 1016 hPa | - | - | - | - |
| 1777922291 | 15° C | 48% | 1016 hPa | - | - | - | - |
| 1777921391 | 15° C | 48% | 1016 hPa | - | - | - | - |
| 1777920491 | 13.89° C | 55% | 1016 hPa | - | - | - | - |
| 1777919601 | 13.89° C | 55% | 1016 hPa | - | - | - | - |
| 1777918691 | 16.11° C | 48% | 1016 hPa | - | - | - | - |
| 1777917791 | 16.11° C | 48% | 1016 hPa | - | - | - | - |
| 1777916891 | 18.89° C | 37% | 1015 hPa | - | - | - | - |
| 1777915991 | 18.89° C | 37% | 1015 hPa | - | - | - | - |
| 1777915091 | 22.22° C | 29% | 1015 hPa | - | - | - | - |
| 1777914191 | 22.22° C | 29% | 1015 hPa | - | - | - | - |
| 1777913291 | 22.22° C | 27% | 1015 hPa | - | - | - | - |
| 1777912406 | 22.22° C | 27% | 1015 hPa | - | - | - | - |
| 1777911500 | 22.78° C | 25% | 1015 hPa | - | - | - | - |
| 1777910592 | 22.78° C | 25% | 1015 hPa | - | - | - | - |
| 1777909691 | 22.78° C | 25% | 1015 hPa | - | - | - | - |
| 1777908791 | 22.78° C | 25% | 1015 hPa | - | - | - | - |
| 1777907892 | 22.78° C | 25% | 1015 hPa | - | - | - | - |
| 1777906991 | 22.78° C | 25% | 1015 hPa | - | - | - | - |
| 1777906091 | 22.22° C | 27% | 1016 hPa | - | - | - | - |
| 1777905192 | 22.22° C | 27% | 1016 hPa | - | - | - | - |
| 1777904359 | 22.22° C | 29% | 1016 hPa | - | - | - | - |
| 1777903392 | 22.22° C | 29% | 1016 hPa | - | - | - | - |
| 1777902491 | 22.78° C | 25% | 1016 hPa | - | - | - | - |
* Rain since midnight (hover to see other rain measurements)
** Current wind speed in m/s (hover to see current wind gust speed)